Time;durP1;ratioP1;P1;durP2;ratioP2;P2;SDS_P1;SDS_P2;PMS_P1;PMS_P2;Temp;Humidity;BMP_temperature;BMP_pressure;BME280_temperature;BME280_humidity;BME280_pressure;Samples;Min_cycle;Max_cycle;Signal;HPM_P1;HPM_P2
2022/07/12 00:00:07;;;;;;;5.50;2.45;;;;;;;16.45;82.78;100187.66;1661558;86;21239;-55
2022/07/12 00:03:14;;;;;;;4.33;2.47;;;;;;;16.43;82.67;100190.62;1648502;84;21264;-56
2022/07/12 00:06:20;;;;;;;6.22;2.22;;;;;;;16.40;82.70;100181.91;1652777;86;21232;-55
2022/07/12 00:09:26;;;;;;;3.65;2.17;;;;;;;16.39;82.71;100185.20;1652724;86;21204;-55
2022/07/12 00:12:32;;;;;;;4.90;2.08;;;;;;;16.39;82.71;100186.58;1652837;86;21220;-56
2022/07/12 00:15:39;;;;;;;8.65;2.80;;;;;;;16.38;82.74;100188.17;1652888;86;21367;-55
2022/07/12 00:18:46;;;;;;;7.35;2.40;;;;;;;16.39;82.78;100199.01;1652838;86;21358;-56
2022/07/12 00:21:54;;;;;;;3.87;2.40;;;;;;;16.37;82.75;100198.41;1653031;86;21220;-55
2022/07/12 00:25:00;;;;;;;5.53;2.08;;;;;;;16.39;82.81;100201.77;1652846;87;21259;-56
2022/07/12 00:27:59;;;;;;;5.78;2.67;;;;;;;16.39;82.87;100199.01;1652900;86;21736;-56
2022/07/12 00:31:06;;;;;;;6.90;2.17;;;;;;;16.41;82.82;100204.34;1652751;86;21292;-56
2022/07/12 00:34:11;;;;;;;6.17;2.08;;;;;;;16.40;82.86;100202.11;1652827;87;21220;-55
2022/07/12 00:37:17;;;;;;;3.87;2.10;;;;;;;16.42;82.88;100212.94;1652717;86;21288;-55
2022/07/12 00:40:23;;;;;;;4.40;2.25;;;;;;;16.42;82.89;100212.42;1661094;86;21215;-55
2022/07/12 00:43:30;;;;;;;6.08;2.15;;;;;;;16.41;82.84;100212.64;1662494;86;21204;-54
2022/07/12 00:46:36;;;;;;;4.87;2.05;;;;;;;16.39;82.85;100222.49;1652777;87;21432;-56
2022/07/12 00:49:43;;;;;;;4.83;2.15;;;;;;;16.37;82.88;100224.65;1644349;87;21210;-54
2022/07/12 00:52:49;;;;;;;8.33;2.72;;;;;;;16.36;82.87;100225.70;1635744;86;21291;-54
2022/07/12 00:55:58;;;;;;;2.98;2.00;;;;;;;16.34;82.84;100223.70;1659677;86;21351;-55
2022/07/12 00:59:06;;;;;;;6.45;2.15;;;;;;;16.32;82.84;100226.34;1661797;86;21346;-53
2022/07/12 01:02:13;;;;;;;4.40;1.82;;;;;;;16.30;82.88;100229.33;1652731;87;21359;-56
2022/07/12 01:05:24;;;;;;;5.33;2.00;;;;;;;16.29;82.94;100222.12;1631547;88;21272;-55
2022/07/12 01:08:28;;;;;;;10.23;2.30;;;;;;;16.30;82.98;100225.19;1632099;87;21300;-55
2022/07/12 01:11:34;;;;;;;4.60;2.27;;;;;;;16.30;83.00;100231.23;1631558;86;21228;-56
2022/07/12 01:14:41;;;;;;;6.08;2.12;;;;;;;16.30;83.02;100224.33;1633253;87;21248;-58
2022/07/12 01:17:47;;;;;;;4.72;2.55;;;;;;;16.28;83.04;100224.55;1632391;86;21243;-56
2022/07/12 01:20:53;;;;;;;6.55;2.45;;;;;;;16.29;83.10;100223.50;1631821;86;21208;-56
2022/07/12 01:23:59;;;;;;;5.30;2.15;;;;;;;16.31;83.15;100220.52;1633497;86;21271;-53
2022/07/12 01:27:05;;;;;;;5.55;2.17;;;;;;;16.32;83.14;100211.16;1614081;87;21227;-54
2022/07/12 01:30:12;;;;;;;6.53;1.92;;;;;;;16.33;83.15;100212.31;1632307;86;21744;-55
2022/07/12 01:33:18;;;;;;;6.80;2.20;;;;;;;16.33;83.20;100216.46;1622738;88;21214;-54
2022/07/12 01:36:26;;;;;;;2.90;2.20;;;;;;;16.33;83.23;100226.13;1637982;87;21235;-55
2022/07/12 01:39:32;;;;;;;6.25;2.37;;;;;;;16.33;83.22;100220.61;1640563;87;21215;-55
2022/07/12 01:42:38;;;;;;;6.83;2.33;;;;;;;16.32;83.24;100228.59;1634084;87;21259;-56
2022/07/12 01:45:44;;;;;;;6.30;2.15;;;;;;;16.31;83.26;100236.58;1634630;87;21203;-55
2022/07/12 01:48:52;;;;;;;3.75;2.35;;;;;;;16.30;83.25;100234.85;1646542;87;21284;-55
2022/07/12 01:51:58;;;;;;;7.47;2.30;;;;;;;16.27;83.25;100235.29;1630770;87;21208;-55
2022/07/12 01:55:04;;;;;;;5.20;2.20;;;;;;;16.24;83.31;100235.72;1632154;86;21211;-55
2022/07/12 01:58:13;;;;;;;5.67;1.87;;;;;;;16.23;83.32;100237.33;1632287;87;21249;-55
2022/07/12 02:01:19;;;;;;;3.65;1.98;;;;;;;16.19;83.33;100242.95;1616069;89;21289;-55
2022/07/12 02:04:25;;;;;;;6.90;2.30;;;;;;;16.13;83.32;100241.91;1637274;87;21255;-55
2022/07/12 02:07:33;;;;;;;5.40;2.40;;;;;;;16.09;83.34;100248.09;1605991;88;21227;-55
2022/07/12 02:10:39;;;;;;;5.78;2.40;;;;;;;16.05;83.36;100244.89;1604556;89;21180;-55
2022/07/12 02:13:46;;;;;;;3.70;2.20;;;;;;;16.02;83.34;100255.52;1604413;89;21271;-56
2022/07/12 02:16:52;;;;;;;4.47;2.62;;;;;;;15.99;83.32;100260.09;1604220;89;21207;-55
2022/07/12 02:19:57;;;;;;;7.72;2.50;;;;;;;15.96;83.35;100263.27;1604370;89;21220;-55
2022/07/12 02:23:04;;;;;;;10.08;2.80;;;;;;;15.93;83.32;100261.80;1588501;89;21208;-55
2022/07/12 02:26:10;;;;;;;3.80;2.60;;;;;;;15.89;83.38;100267.41;1604258;89;21228;-55
2022/07/12 02:29:17;;;;;;;4.20;2.65;;;;;;;15.88;83.38;100273.16;1604445;89;21221;-55
2022/07/12 02:32:23;;;;;;;18.52;16.87;;;;;;;15.83;83.36;100276.55;1594555;89;21274;-54
2022/07/12 02:35:29;;;;;;;11.90;9.55;;;;;;;15.81;83.39;100280.60;1604287;89;21254;-55
2022/07/12 02:38:35;;;;;;;9.00;4.58;;;;;;;15.78;83.45;100281.86;1604521;88;21242;-54
2022/07/12 02:41:42;;;;;;;6.30;3.30;;;;;;;15.78;83.45;100287.90;1604412;89;21234;-55
2022/07/12 02:44:48;;;;;;;3.08;2.45;;;;;;;15.76;83.45;100289.49;1604403;89;21210;-55
2022/07/12 02:47:53;;;;;;;4.10;2.58;;;;;;;15.73;83.42;100289.09;1631545;87;21276;-55
2022/07/12 02:51:00;;;;;;;5.60;2.33;;;;;;;15.71;83.48;100294.83;1604413;89;21223;-55
2022/07/12 02:54:06;;;;;;;7.10;2.67;;;;;;;15.74;83.50;100299.06;1604538;89;21184;-56
2022/07/12 02:57:13;;;;;;;6.55;2.50;;;;;;;15.75;83.55;100298.84;1604460;89;21264;-55
2022/07/12 03:00:19;;;;;;;6.60;2.62;;;;;;;15.78;83.54;100304.46;1604441;89;21199;-55
2022/07/12 03:03:26;;;;;;;3.33;2.52;;;;;;;15.82;83.54;100304.38;1604558;89;21231;-55
2022/07/12 03:06:31;;;;;;;13.10;2.92;;;;;;;15.85;83.57;100302.05;1615845;87;21216;-54
2022/07/12 03:09:38;;;;;;;7.47;2.85;;;;;;;15.91;83.59;100312.76;1632561;87;21278;-55
2022/07/12 03:12:42;;;;;;;4.85;2.90;;;;;;;15.95;83.55;100307.98;1607925;89;21253;-55
2022/07/12 03:15:52;;;;;;;7.78;3.37;;;;;;;16.01;83.63;100320.09;1634160;87;21216;-55
2022/07/12 03:18:59;;;;;;;7.30;3.67;;;;;;;16.07;83.60;100322.00;1632095;87;21228;-55
2022/07/12 03:22:05;;;;;;;5.37;3.77;;;;;;;16.09;83.56;100327.62;1631890;88;21247;-54
2022/07/12 03:25:12;;;;;;;5.83;4.17;;;;;;;16.12;83.54;100326.36;1614200;88;21250;-55
2022/07/12 03:28:19;;;;;;;8.23;4.15;;;;;;;16.16;83.50;100331.77;1615542;88;21225;-55
2022/07/12 03:31:25;;;;;;;8.30;4.20;;;;;;;16.17;83.49;100331.55;1632186;87;21238;-55
2022/07/12 03:34:34;;;;;;;8.60;4.70;;;;;;;16.17;83.40;100331.55;1632084;88;21258;-56
2022/07/12 03:37:55;;;;;;;6.22;4.53;;;;;;;16.16;83.35;100334.52;1644588;87;21264;-55
2022/07/12 03:41:04;;;;;;;8.93;4.40;;;;;;;16.16;83.37;100335.91;1624309;87;21246;-56
2022/07/12 03:44:12;;;;;;;5.17;3.95;;;;;;;16.17;83.32;100332.10;1624856;88;21242;-56
2022/07/12 03:47:17;;;;;;;6.22;4.35;;;;;;;16.19;83.34;100340.48;1624846;88;21278;-56
2022/07/12 03:50:25;;;;;;;7.08;4.35;;;;;;;16.18;83.35;100338.80;1632392;87;21249;-55
2022/07/12 03:53:30;;;;;;;7.65;4.40;;;;;;;16.24;83.44;100343.45;1628335;88;21270;-55
2022/07/12 04:00:02;;;;;;;9.53;3.83;;;;;;;16.28;83.33;100352.17;1644369;87;21232;-55
2022/07/12 04:03:10;;;;;;;6.00;3.80;;;;;;;16.28;83.32;100341.95;1631936;87;21234;-55
2022/07/12 04:06:17;;;;;;;6.40;4.00;;;;;;;16.31;83.35;100345.70;1644583;87;21251;-55
2022/07/12 04:09:22;;;;;;;5.12;4.20;;;;;;;16.34;83.37;100348.03;1604869;89;21200;-55
2022/07/12 04:12:28;;;;;;;6.80;3.92;;;;;;;16.40;83.44;100350.45;1605303;88;21417;-55
2022/07/12 04:15:35;;;;;;;7.05;4.08;;;;;;;16.44;83.54;100348.45;1635883;88;21215;-55
2022/07/12 04:18:43;;;;;;;6.78;3.95;;;;;;;16.52;83.58;100357.08;1650906;86;21268;-55
2022/07/12 04:21:50;;;;;;;8.63;4.40;;;;;;;16.56;83.60;100358.86;1631796;88;21217;-55
2022/07/12 04:24:58;;;;;;;8.28;4.30;;;;;;;16.62;83.68;100355.26;1635887;88;21188;-56
2022/07/12 04:28:05;;;;;;;6.70;3.50;;;;;;;16.62;83.61;100356.64;1638947;87;21272;-56
2022/07/12 04:31:13;;;;;;;5.90;3.70;;;;;;;16.64;83.67;100357.25;1604173;89;21315;-55
2022/07/12 04:34:20;;;;;;;7.95;4.00;;;;;;;16.67;83.73;100356.81;1621041;88;21388;-55
2022/07/12 04:37:26;;;;;;;6.58;3.42;;;;;;;16.74;83.83;100365.96;1633125;88;21921;-56
2022/07/12 04:40:33;;;;;;;7.70;3.50;;;;;;;16.82;83.96;100370.73;1604189;89;21311;-55
2022/07/12 04:43:38;;;;;;;5.17;3.30;;;;;;;16.90;83.99;100374.66;1603149;88;21228;-56
2022/07/12 04:46:43;;;;;;;4.83;3.27;;;;;;;16.97;84.08;100366.30;1603438;88;21271;-55
2022/07/12 04:49:53;;;;;;;6.10;3.37;;;;;;;17.05;84.09;100374.38;1603599;89;21212;-54
2022/07/12 04:52:58;;;;;;;5.55;3.42;;;;;;;17.12;84.06;100382.13;1604221;89;21415;-55
2022/07/12 04:56:07;;;;;;;6.33;3.17;;;;;;;17.18;84.12;100390.93;1633298;86;21385;-53
2022/07/12 04:59:14;;;;;;;7.65;4.58;;;;;;;17.26;84.10;100385.16;1597915;89;21319;-55
2022/07/12 05:02:22;;;;;;;4.85;3.05;;;;;;;17.32;84.02;100391.19;1632123;88;21267;-61
2022/07/12 05:05:29;;;;;;;5.25;3.42;;;;;;;17.37;84.03;100388.63;1587481;89;21255;-61
2022/07/12 05:08:35;;;;;;;5.65;3.67;;;;;;;17.44;84.02;100390.84;1643602;86;21251;-62
2022/07/12 05:11:47;;;;;;;7.85;3.55;;;;;;;17.51;84.07;100388.91;1607275;88;21272;-61
2022/07/12 05:14:59;;;;;;;5.40;3.55;;;;;;;17.60;84.08;100397.29;1604515;88;21288;-61
2022/07/12 05:18:09;;;;;;;5.70;3.58;;;;;;;17.65;83.99;100397.45;1601974;88;21320;-63
2022/07/12 05:21:19;;;;;;;5.08;3.22;;;;;;;17.66;83.92;100395.02;1600627;89;21313;-60
2022/07/12 05:24:27;;;;;;;9.48;3.92;;;;;;;17.72;84.00;100400.52;1600276;88;21236;-61
2022/07/12 05:27:34;;;;;;;7.25;3.95;;;;;;;17.83;84.07;100401.73;1600455;88;21268;-58
2022/07/12 05:30:43;;;;;;;19.07;6.55;;;;;;;17.93;84.03;100400.72;1591187;89;21821;-59
2022/07/12 05:33:48;;;;;;;5.97;3.77;;;;;;;18.01;84.04;100393.52;1628272;87;21216;-60
2022/07/12 05:36:56;;;;;;;5.45;3.30;;;;;;;18.15;84.14;100393.73;1590119;88;21775;-59
2022/07/12 05:40:08;;;;;;;4.80;3.20;;;;;;;18.25;84.04;100398.22;1600153;89;21227;-59
2022/07/12 05:43:23;;;;;;;9.20;3.70;;;;;;;18.30;83.96;100392.03;1630033;87;21727;-59
2022/07/12 05:46:34;;;;;;;6.87;3.50;;;;;;;18.35;83.84;100406.89;1587553;88;22110;-58
2022/07/12 05:49:43;;;;;;;5.55;3.30;;;;;;;18.41;83.77;100394.10;1617217;88;21248;-57
2022/07/12 05:56:18;;;;;;;5.15;3.10;;;;;;;18.50;83.69;100403.30;1600225;88;21237;-58
2022/07/12 05:59:32;;;;;;;6.80;3.50;;;;;;;18.57;83.70;100398.52;1598310;89;21241;-58
2022/07/12 06:02:41;;;;;;;4.78;2.90;;;;;;;18.64;83.75;100410.41;1625177;86;21262;-58
2022/07/12 06:05:54;;;;;;;5.58;2.90;;;;;;;18.72;83.77;100410.13;1592619;88;21271;-59
2022/07/12 06:09:05;;;;;;;8.45;3.52;;;;;;;18.79;83.78;100411.45;1609715;84;21387;-57
2022/07/12 06:12:14;;;;;;;5.03;3.12;;;;;;;18.84;83.80;100411.06;1613363;87;21801;-58
2022/07/12 06:15:28;;;;;;;4.17;3.10;;;;;;;18.93;83.84;100414.41;1602058;88;21309;-59
2022/07/12 06:18:42;;;;;;;3.67;2.85;;;;;;;18.99;83.71;100421.27;1632469;85;21228;-57
2022/07/12 06:21:52;;;;;;;4.30;3.22;;;;;;;19.04;83.70;100414.47;1611523;86;21794;-58
2022/07/12 06:24:58;;;;;;;7.65;3.45;;;;;;;19.11;83.71;100409.71;1591809;87;21263;-58
2022/07/12 06:28:09;;;;;;;4.40;2.90;;;;;;;19.20;83.70;100414.43;1610261;89;21612;-58
2022/07/12 06:31:37;;;;;;;6.55;3.30;;;;;;;19.27;83.66;100414.66;1629286;86;21326;-57
2022/07/12 06:34:46;;;;;;;6.20;3.20;;;;;;;19.36;83.68;100417.98;1643667;85;21419;-58
2022/07/12 06:37:56;;;;;;;5.53;3.00;;;;;;;19.47;83.74;100421.40;1617914;87;21290;-58
2022/07/12 06:41:04;;;;;;;4.62;3.00;;;;;;;19.52;83.56;100421.52;1601965;87;21333;-57
2022/07/12 06:44:12;;;;;;;5.87;3.42;;;;;;;19.57;83.46;100423.63;1601959;88;21248;-57
2022/07/12 06:47:18;;;;;;;4.97;2.70;;;;;;;19.64;83.49;100420.20;1608858;86;21820;-59
2022/07/12 06:50:24;;;;;;;8.03;3.60;;;;;;;19.71;83.44;100423.76;1605494;87;21401;-58
2022/07/12 06:53:32;;;;;;;6.12;2.85;;;;;;;19.79;83.49;100417.32;1637143;87;21262;-58
2022/07/12 06:56:47;;;;;;;4.67;2.60;;;;;;;19.86;83.40;100424.18;1638197;86;21235;-57
2022/07/12 06:59:52;;;;;;;5.03;3.30;;;;;;;19.89;83.29;100423.70;1631353;87;21380;-57
2022/07/12 07:03:00;;;;;;;4.55;2.30;;;;;;;19.95;83.29;100426.92;1615770;87;22152;-58
2022/07/12 07:06:11;;;;;;;7.85;2.83;;;;;;;20.02;83.35;100424.38;1657155;85;21391;-56
2022/07/12 07:09:19;;;;;;;3.77;2.05;;;;;;;20.13;83.41;100436.08;1633016;84;21291;-56
2022/07/12 07:12:21;;;;;;;3.40;2.50;;;;;;;20.23;83.38;100429.98;1629334;85;21841;-56
2022/07/12 07:15:26;;;;;;;3.37;2.10;;;;;;;20.29;83.18;100431.80;1610710;88;21270;-56
2022/07/12 07:18:34;;;;;;;4.42;2.10;;;;;;;20.33;82.99;100431.62;1625975;88;21658;-56
2022/07/12 07:21:39;;;;;;;8.33;2.08;;;;;;;20.39;82.96;100438.47;1612557;87;21297;-57
2022/07/12 07:24:46;;;;;;;5.08;2.15;;;;;;;20.48;82.96;100441.77;1615186;87;21789;-55
2022/07/12 07:27:55;;;;;;;2.02;1.52;;;;;;;20.56;82.88;100440.89;1641858;86;21284;-56
2022/07/12 07:31:05;;;;;;;3.10;1.92;;;;;;;20.68;82.89;100440.35;1632825;86;21775;-56
2022/07/12 07:34:11;;;;;;;3.83;1.85;;;;;;;20.82;82.81;100441.52;1606556;87;21352;-55
2022/07/12 07:37:23;;;;;;;2.33;1.52;;;;;;;20.96;82.77;100441.08;1628137;86;21250;-57
2022/07/12 07:40:30;;;;;;;2.33;1.62;;;;;;;21.13;82.77;100442.58;1605024;87;21294;-57
2022/07/12 07:43:36;;;;;;;4.58;1.90;;;;;;;21.26;82.50;100449.30;1630267;87;21266;-56
2022/07/12 07:46:47;;;;;;;2.25;1.32;;;;;;;21.41;82.47;100444.05;1600128;88;21275;-56
2022/07/12 07:49:54;;;;;;;3.37;1.72;;;;;;;21.59;82.33;100453.13;1600709;87;21247;-55
2022/07/12 07:53:04;;;;;;;2.98;1.75;;;;;;;21.62;81.87;100449.84;1578628;89;21361;-57
2022/07/12 07:56:09;;;;;;;5.85;2.10;;;;;;;21.60;81.64;100456.20;1598561;87;21267;-56
2022/07/12 07:59:20;;;;;;;1.72;1.45;;;;;;;21.67;81.59;100457.45;1592417;87;21241;-55
2022/07/12 08:02:27;;;;;;;3.27;1.47;;;;;;;21.79;81.47;100460.55;1614384;88;21280;-58
2022/07/12 08:05:33;;;;;;;3.58;1.42;;;;;;;21.92;81.32;100463.05;1599006;88;21229;-59
2022/07/12 08:08:40;;;;;;;4.30;1.37;;;;;;;21.93;80.95;100470.31;1621846;86;21246;-56
2022/07/12 08:11:48;;;;;;;2.27;1.30;;;;;;;21.94;80.71;100476.20;1618679;85;21208;-56
2022/07/12 08:14:55;;;;;;;3.67;1.47;;;;;;;21.97;80.63;100475.70;1638600;85;21804;-57
2022/07/12 08:18:03;;;;;;;4.40;1.35;;;;;;;22.07;80.66;100470.31;1666227;84;21234;-57
2022/07/12 08:21:10;;;;;;;2.05;1.27;;;;;;;22.14;80.54;100478.54;1667264;84;21246;-57
2022/07/12 08:24:16;;;;;;;2.80;1.05;;;;;;;22.20;80.43;100467.77;1667634;84;21271;-57
2022/07/12 08:27:23;;;;;;;2.10;1.25;;;;;;;22.31;80.41;100478.03;1669027;86;21252;-55
2022/07/12 08:30:31;;;;;;;4.12;1.45;;;;;;;22.46;80.38;100488.64;1644998;86;21251;-57
2022/07/12 08:33:38;;;;;;;2.83;1.00;;;;;;;22.58;80.23;100495.05;1651373;86;21319;-57
2022/07/12 08:36:44;;;;;;;2.05;1.10;;;;;;;22.65;80.00;100495.72;1660696;84;21271;-58
2022/07/12 08:39:53;;;;;;;2.02;1.27;;;;;;;22.74;79.92;100485.28;1666365;84;21200;-58
2022/07/12 08:43:03;;;;;;;2.12;1.15;;;;;;;22.86;79.78;100489.41;1667571;85;21255;-57
2022/07/12 08:46:21;;;;;;;3.65;1.20;;;;;;;22.90;79.56;100496.16;1641768;86;21251;-58
2022/07/12 08:49:27;;;;;;;3.00;1.27;;;;;;;22.92;79.36;100493.43;1641248;87;21235;-57
2022/07/12 08:52:35;;;;;;;2.87;1.17;;;;;;;22.86;79.07;100501.97;1668377;84;21289;-58
2022/07/12 08:55:42;;;;;;;2.42;1.20;;;;;;;22.78;78.90;100507.42;1694297;84;21282;-56
2022/07/12 08:58:48;;;;;;;4.30;1.20;;;;;;;22.81;78.97;100498.55;1681664;84;21230;-57
2022/07/12 09:02:00;;;;;;;5.40;1.20;;;;;;;22.85;78.92;100498.89;1659960;84;22130;-57
2022/07/12 09:05:16;;;;;;;3.08;1.47;;;;;;;22.96;78.94;100500.19;1680936;84;21243;-56
2022/07/12 09:08:23;;;;;;;4.97;1.40;;;;;;;23.02;78.90;100508.11;1684516;84;21187;-54
2022/07/12 09:11:30;;;;;;;3.45;1.17;;;;;;;22.91;78.50;100507.65;1687312;83;21245;-55
2022/07/12 09:14:37;;;;;;;3.08;1.30;;;;;;;22.78;78.39;100506.03;1652321;85;21200;-54
2022/07/12 09:17:46;;;;;;;1.57;1.05;;;;;;;22.80;78.36;100514.98;1666655;84;21230;-55
2022/07/12 09:21:04;;;;;;;2.92;1.00;;;;;;;22.73;78.09;100512.06;1651939;85;21196;-54
2022/07/12 09:24:20;;;;;;;1.40;0.90;;;;;;;22.62;78.04;100510.18;1600352;89;21796;-53
2022/07/12 09:27:34;;;;;;;1.95;0.90;;;;;;;22.71;78.14;100518.44;1607614;88;21252;-54
2022/07/12 09:30:41;;;;;;;0.80;0.80;;;;;;;22.89;78.11;100516.28;1623002;88;21279;-53
2022/07/12 09:37:12;;;;;;;1.17;0.80;;;;;;;23.31;78.09;100512.52;1630361;87;21263;-53
2022/07/12 09:40:29;;;;;;;4.37;1.05;;;;;;;23.59;78.11;100514.63;1632715;87;21819;-53
2022/07/12 09:43:38;;;;;;;1.32;1.00;;;;;;;23.84;77.82;100525.88;1632300;88;21576;-54
2022/07/12 09:46:46;;;;;;;0.80;0.80;;;;;;;23.98;77.52;100523.02;1616090;87;21326;-54
2022/07/12 09:49:55;;;;;;;1.77;1.25;;;;;;;24.09;77.30;100513.66;1632192;88;21255;-54
2022/07/12 09:53:02;;;;;;;2.77;1.07;;;;;;;24.16;76.99;100520.77;1606650;89;21438;-57
2022/07/12 09:56:13;;;;;;;2.80;0.93;;;;;;;24.09;76.55;100514.51;1646768;86;21251;-55
2022/07/12 09:59:27;;;;;;;2.67;0.95;;;;;;;24.03;76.29;100525.34;1630101;86;21418;-54
2022/07/12 10:02:32;;;;;;;1.75;1.00;;;;;;;23.95;76.15;100529.11;1625425;85;21265;-55
2022/07/12 10:05:40;;;;;;;3.20;1.20;;;;;;;23.85;76.09;100529.81;1656569;85;21260;-56
2022/07/12 10:08:51;;;;;;;4.35;1.02;;;;;;;23.76;75.88;100527.18;1645893;85;21788;-53
2022/07/12 10:12:00;;;;;;;2.92;0.80;;;;;;;23.75;75.93;100535.83;1658977;85;21200;-50
2022/07/12 10:15:23;;;;;;;1.25;0.80;;;;;;;23.86;76.10;100531.53;1662610;83;21767;-52
2022/07/12 10:18:33;;;;;;;1.00;0.90;;;;;;;23.99;75.82;100532.55;1622904;85;21248;-52
2022/07/12 10:21:39;;;;;;;0.82;0.50;;;;;;;24.08;75.77;100526.81;1621868;87;21268;-51
2022/07/12 10:24:54;;;;;;;1.00;0.50;;;;;;;24.21;75.58;100529.23;1563956;87;21887;-49
2022/07/12 10:27:58;;;;;;;0.90;0.60;;;;;;;24.30;75.24;100528.19;1633525;88;21396;-53
2022/07/12 10:31:11;;;;;;;3.83;0.70;;;;;;;24.39;75.02;100526.61;1634332;86;21875;-52
2022/07/12 10:34:32;;;;;;;1.98;0.90;;;;;;;24.45;74.83;100532.00;1617389;87;21216;-54
2022/07/12 10:37:41;;;;;;;2.30;0.78;;;;;;;24.49;74.66;100516.94;1639707;87;21275;-54
2022/07/12 10:40:51;;;;;;;4.78;1.40;;;;;;;24.54;74.54;100517.85;1635235;87;21274;-52
2022/07/12 10:44:11;;;;;;;4.92;2.52;;;;;;;24.65;74.65;100527.19;1635246;87;21224;-53
2022/07/12 10:47:21;;;;;;;2.55;1.07;;;;;;;24.72;74.40;100524.49;1600367;88;21238;-51
2022/07/12 10:51:01;;;;;;;2.33;1.30;;;;;;;24.82;74.24;100524.61;1655107;86;21243;-52
2022/07/12 10:54:28;;;;;;;1.47;0.78;;;;;;;24.95;74.04;100524.72;1647009;86;21220;-51
2022/07/12 10:57:54;;;;;;;;;;;;;;;25.12;73.71;100533.01;1637482;87;21303;-51
2022/07/12 11:00:58;;;;;;;4.53;1.20;;;;;;;25.00;73.18;100526.17;1636539;86;20573;-50
2022/07/12 11:04:17;;;;;;;3.80;1.05;;;;;;;25.07;73.11;100528.75;1633444;86;21220;-51
2022/07/12 11:07:29;;;;;;;2.10;1.30;;;;;;;25.05;72.90;100529.02;1651024;85;21244;-51
2022/07/12 11:10:35;;;;;;;2.05;1.12;;;;;;;24.99;72.62;100531.47;1598914;87;21224;-50
2022/07/12 11:13:42;;;;;;;2.30;1.72;;;;;;;25.08;72.63;100535.48;1633509;87;21295;-50
2022/07/12 11:16:54;;;;;;;3.85;1.77;;;;;;;25.12;72.31;100532.43;1642021;87;21255;-52
2022/07/12 11:20:15;;;;;;;4.15;2.50;;;;;;;25.04;71.92;100531.52;1651419;87;21213;-52
2022/07/12 11:23:20;;;;;;;2.83;1.90;;;;;;;25.04;71.77;100525.91;1631496;86;21898;-52
2022/07/12 11:26:28;;;;;;;4.58;1.30;;;;;;;24.99;71.37;100532.32;1631522;86;21236;-51
2022/07/12 11:29:34;;;;;;;1.32;0.90;;;;;;;24.86;71.06;100529.95;1631874;86;21284;-52
2022/07/12 11:32:47;;;;;;;1.67;0.90;;;;;;;24.82;70.97;100535.81;1619727;88;21260;-52
2022/07/12 11:35:57;;;;;;;4.00;1.10;;;;;;;24.80;70.78;100542.22;1631833;86;21227;-52
2022/07/12 11:39:04;;;;;;;1.32;1.10;;;;;;;24.79;70.55;100536.34;1630819;87;21244;-57
2022/07/12 11:42:13;;;;;;;1.00;0.90;;;;;;;24.76;70.33;100531.27;1629528;87;21584;-50
2022/07/12 11:45:24;;;;;;;1.70;1.05;;;;;;;24.92;70.50;100527.52;1636721;87;21811;-50
2022/07/12 11:48:32;;;;;;;2.00;1.00;;;;;;;25.16;70.52;100519.59;1633479;86;21256;-51
2022/07/12 11:51:39;;;;;;;5.10;1.45;;;;;;;25.29;70.21;100521.91;1630667;86;21300;-51
2022/07/12 11:54:48;;;;;;;4.72;1.65;;;;;;;25.42;70.10;100528.50;1609127;89;21251;-51
2022/07/12 11:57:58;;;;;;;3.35;1.47;;;;;;;25.46;69.83;100521.80;1629621;87;21251;-50
2022/07/12 12:01:06;;;;;;;2.27;1.02;;;;;;;25.54;69.72;100522.70;1605093;89;21274;-52
2022/07/12 12:04:13;;;;;;;4.75;1.10;;;;;;;25.68;69.61;100528.12;1631146;86;21184;-49
2022/07/12 12:07:23;;;;;;;2.05;0.90;;;;;;;25.76;69.19;100522.85;1615743;87;21261;-51
2022/07/12 12:10:31;;;;;;;1.30;0.98;;;;;;;25.71;68.82;100516.34;1592197;88;21239;-53
2022/07/12 12:13:39;;;;;;;2.08;1.02;;;;;;;25.71;68.51;100516.34;1584853;89;21294;-51
2022/07/12 12:16:51;;;;;;;1.32;1.10;;;;;;;25.76;68.34;100522.00;1614777;84;21287;-51
2022/07/12 12:20:02;;;;;;;2.25;0.93;;;;;;;25.92;68.23;100519.02;1648223;86;21545;-51
2022/07/12 12:23:09;;;;;;;2.22;1.45;;;;;;;25.99;67.92;100518.77;1625000;88;21248;-51
2022/07/12 12:26:26;;;;;;;1.95;0.90;;;;;;;26.06;67.69;100522.19;1629837;86;21264;-52
2022/07/12 12:29:51;;;;;;;1.62;1.00;;;;;;;26.12;67.47;100512.66;1629870;86;21201;-51
2022/07/12 12:33:06;;;;;;;2.50;1.95;;;;;;;26.15;67.21;100523.34;1630700;86;21791;-51
2022/07/12 12:36:27;;;;;;;3.58;2.75;;;;;;;25.97;66.73;100519.59;1616378;86;21808;-52
2022/07/12 12:39:39;;;;;;;2.08;1.65;;;;;;;25.76;66.45;100517.79;1620911;86;21287;-52
2022/07/12 12:42:45;;;;;;;0.70;0.67;;;;;;;25.77;66.28;100518.92;1625838;88;21858;-49
2022/07/12 12:46:02;;;;;;;2.17;0.98;;;;;;;25.77;66.28;100518.92;1612292;88;21950;-49
2022/07/12 12:49:09;;;;;;;1.60;0.80;;;;;;;25.79;65.95;100521.45;1628208;88;21215;-50
2022/07/12 12:52:18;;;;;;;1.67;0.88;;;;;;;25.70;65.66;100521.14;1662647;83;21223;-50
2022/07/12 12:55:28;;;;;;;2.02;1.20;;;;;;;25.63;65.39;100512.11;1655418;85;21243;-52
2022/07/12 12:58:40;;;;;;;2.15;0.85;;;;;;;25.70;65.31;100514.67;1646154;86;21232;-51
2022/07/12 13:01:49;;;;;;;1.62;1.05;;;;;;;25.84;65.24;100520.94;1630721;86;21846;-51
2022/07/12 13:04:55;;;;;;;1.12;0.88;;;;;;;25.88;64.98;100512.80;1629749;87;21830;-51
2022/07/12 13:08:04;;;;;;;1.95;1.17;;;;;;;25.91;64.67;100508.89;1631067;86;21247;-52
2022/07/12 13:11:40;;;;;;;2.05;1.00;;;;;;;25.81;64.31;100511.66;1618919;86;21259;-52
2022/07/12 13:14:52;;;;;;;2.25;0.95;;;;;;;25.67;63.95;100501.20;1629441;87;21299;-48
2022/07/12 13:17:58;;;;;;;3.67;1.20;;;;;;;25.51;63.78;100506.42;1632672;84;21877;-49
2022/07/12 13:21:06;;;;;;;1.90;0.90;;;;;;;25.39;63.69;100509.41;1640588;86;21791;-49
2022/07/12 13:24:12;;;;;;;1.32;1.20;;;;;;;25.29;63.58;100512.09;1622861;87;21649;-48
2022/07/12 13:27:21;;;;;;;2.33;1.12;;;;;;;25.17;63.46;100507.26;1651057;85;21771;-50
2022/07/12 13:30:31;;;;;;;1.25;1.00;;;;;;;25.10;63.35;100506.66;1629640;85;21255;-48
2022/07/12 13:33:45;;;;;;;2.98;1.30;;;;;;;25.01;63.20;100506.84;1642648;86;21650;-50
2022/07/12 13:36:55;;;;;;;3.45;1.47;;;;;;;24.92;63.00;100514.05;1639356;86;21830;-49
2022/07/12 13:40:16;;;;;;;4.22;1.35;;;;;;;24.89;62.94;100508.41;1645630;87;22031;-49
2022/07/12 13:43:25;;;;;;;1.98;1.67;;;;;;;24.84;62.77;100511.19;1632304;87;21351;-49
2022/07/12 13:46:36;;;;;;;1.70;1.10;;;;;;;24.83;62.62;100503.88;1651291;85;21816;-49
2022/07/12 13:49:45;;;;;;;2.50;1.40;;;;;;;24.83;62.37;100500.25;1651318;85;21442;-49
2022/07/12 13:52:53;;;;;;;2.00;1.27;;;;;;;24.77;62.17;100506.34;1637609;85;21785;-48
2022/07/12 13:55:59;;;;;;;2.67;2.10;;;;;;;24.72;62.04;100497.89;1639120;87;21254;-53
2022/07/12 13:59:05;;;;;;;2.80;1.65;;;;;;;24.67;61.95;100505.41;1618233;87;21287;-47
2022/07/12 14:02:12;;;;;;;2.33;1.25;;;;;;;24.62;61.86;100506.72;1599614;87;21227;-47
2022/07/12 14:05:23;;;;;;;5.03;1.40;;;;;;;24.59;61.77;100505.28;1629594;86;21302;-50
2022/07/12 14:08:32;;;;;;;3.75;1.55;;;;;;;24.53;61.61;100502.72;1587012;86;21670;-51
2022/07/12 14:11:38;;;;;;;4.03;2.37;;;;;;;24.53;61.61;100502.72;1644708;86;21265;-54
2022/07/12 14:18:10;;;;;;;4.42;1.40;;;;;;;24.37;61.24;100505.88;1621025;86;21753;-57
2022/07/12 14:21:17;;;;;;;2.35;1.30;;;;;;;24.25;61.12;100509.94;1616481;86;21271;-57
2022/07/12 14:24:22;;;;;;;4.65;1.20;;;;;;;24.28;61.20;100508.87;1630604;88;21219;-57
2022/07/12 14:27:28;;;;;;;1.77;0.98;;;;;;;24.47;61.17;100501.80;1629998;86;21232;-57
2022/07/12 14:30:34;;;;;;;3.08;1.10;;;;;;;24.73;61.14;100499.60;1628178;88;21240;-57
2022/07/12 14:33:41;;;;;;;1.57;1.00;;;;;;;25.01;60.87;100488.63;1629538;85;21236;-58
2022/07/12 14:36:47;;;;;;;1.25;1.10;;;;;;;25.20;60.56;100491.88;1625232;87;21268;-55
2022/07/12 14:39:57;;;;;;;2.70;1.12;;;;;;;25.35;60.33;100500.42;1626097;88;21212;-55
2022/07/12 14:43:05;;;;;;;4.90;1.65;;;;;;;25.39;60.09;100494.55;1626985;85;21308;-55
2022/07/12 14:46:13;;;;;;;1.62;1.42;;;;;;;25.39;59.74;100497.34;1643224;85;21292;-55
2022/07/12 14:49:19;;;;;;;4.72;1.20;;;;;;;25.32;59.50;100498.13;1625432;88;21232;-54